createdAt,value
2016-10-30T00:00:37.085Z,0
2016-10-30T00:01:37.635Z,0
2016-10-30T00:02:37.159Z,0
2016-10-30T00:03:37.417Z,0
2016-10-30T00:04:37.333Z,0
2016-10-30T00:05:37.383Z,0
2016-10-30T00:06:37.942Z,0
2016-10-30T00:07:37.409Z,0
2016-10-30T00:08:37.533Z,0
2016-10-30T00:09:37.636Z,0
2016-10-30T00:10:37.612Z,0
2016-10-30T00:11:38.702Z,0
2016-10-30T00:12:37.673Z,0
2016-10-30T00:13:37.729Z,0
2016-10-30T00:14:37.883Z,0
2016-10-30T00:15:38.353Z,0
2016-10-30T00:16:37.878Z,0
2016-10-30T00:17:37.925Z,0
2016-10-30T00:18:38.501Z,0
2016-10-30T00:19:38.088Z,0
2016-10-30T00:20:38.066Z,0
2016-10-30T00:21:38.134Z,0
2016-10-30T00:22:38.199Z,0
2016-10-30T00:23:38.223Z,0
2016-10-30T00:24:38.395Z,0
2016-10-30T00:25:38.347Z,0
2016-10-30T00:26:38.377Z,0
2016-10-30T00:27:38.404Z,0
2016-10-30T00:28:39.494Z,0
2016-10-30T00:29:38.670Z,0
2016-10-30T00:30:38.551Z,0
2016-10-30T00:31:39.137Z,0
2016-10-30T00:32:38.663Z,0
2016-10-30T00:33:39.275Z,0
2016-10-30T00:34:38.886Z,0
2016-10-30T00:35:38.767Z,0
2016-10-30T00:36:38.827Z,0
2016-10-30T00:37:38.925Z,0
2016-10-30T00:38:38.985Z,0
2016-10-30T00:39:39.076Z,0
2016-10-30T00:40:39.208Z,0
2016-10-30T00:41:39.133Z,0
2016-10-30T00:42:39.419Z,0
2016-10-30T00:43:39.761Z,0
2016-10-30T00:44:39.305Z,0
2016-10-30T00:45:39.425Z,0
2016-10-30T00:46:39.333Z,0
2016-10-30T00:47:39.411Z,0
2016-10-30T00:48:40.473Z,0
2016-10-30T00:49:39.539Z,0
2016-10-30T00:50:39.735Z,0
2016-10-30T00:51:39.544Z,0
2016-10-30T00:52:39.670Z,0
2016-10-30T00:53:39.705Z,0
2016-10-30T00:54:39.800Z,0
2016-10-30T00:55:39.917Z,0
2016-10-30T00:56:39.825Z,0
2016-10-30T00:57:39.883Z,0
2016-10-30T00:58:39.937Z,0
2016-10-30T00:59:40.539Z,0
2016-10-30T01:00:40.736Z,0
2016-10-30T01:01:40.123Z,0
2016-10-30T01:02:40.107Z,0
2016-10-30T01:03:40.730Z,0
2016-10-30T01:04:40.245Z,0
2016-10-30T01:05:40.402Z,0
2016-10-30T01:06:40.320Z,0
2016-10-30T01:07:40.350Z,0
2016-10-30T01:08:40.413Z,0
2016-10-30T01:09:40.513Z,0
2016-10-30T01:10:40.594Z,0
2016-10-30T01:11:40.694Z,0
2016-10-30T01:12:40.650Z,0
2016-10-30T01:13:40.701Z,0
2016-10-30T01:14:40.776Z,0
2016-10-30T01:15:40.789Z,0
2016-10-30T01:16:40.959Z,0
2016-10-30T01:17:40.922Z,0
2016-10-30T01:18:40.929Z,0
2016-10-30T01:19:41.013Z,0
2016-10-30T01:20:41.057Z,0
2016-10-30T01:21:41.172Z,0
2016-10-30T01:22:41.184Z,0
2016-10-30T01:23:41.166Z,0
2016-10-30T01:24:41.213Z,0
2016-10-30T01:25:41.325Z,0
2016-10-30T01:26:41.427Z,0
2016-10-30T01:27:41.919Z,0
2016-10-30T01:28:41.377Z,0
2016-10-30T01:29:42.021Z,0
2016-10-30T01:30:42.047Z,0
2016-10-30T01:31:41.711Z,0
2016-10-30T01:32:41.630Z,0
2016-10-30T01:33:41.671Z,0
2016-10-30T01:34:41.669Z,0
2016-10-30T01:35:41.732Z,0
2016-10-30T01:36:41.913Z,0
2016-10-30T01:37:41.860Z,0
2016-10-30T01:38:41.878Z,0
2016-10-30T01:39:42.008Z,0
2016-10-30T01:40:42.075Z,0
2016-10-30T01:41:42.079Z,0
2016-10-30T01:42:42.225Z,0
2016-10-30T01:43:42.163Z,0
2016-10-30T01:44:42.226Z,0
2016-10-30T01:45:42.307Z,0
2016-10-30T01:46:42.346Z,0
2016-10-30T01:47:42.487Z,0
2016-10-30T01:48:42.412Z,0
2016-10-30T01:49:42.463Z,0
2016-10-30T01:50:42.493Z,0
2016-10-30T01:51:42.595Z,0
2016-10-30T01:52:42.691Z,0
2016-10-30T01:53:42.645Z,0
2016-10-30T01:54:42.708Z,0
2016-10-30T01:55:43.300Z,0
2016-10-30T01:56:42.786Z,0
2016-10-30T01:57:42.953Z,0
2016-10-30T01:58:42.874Z,0
2016-10-30T01:59:43.984Z,0
2016-10-30T02:00:43.007Z,0
2016-10-30T02:01:43.050Z,0
2016-10-30T02:02:43.148Z,0
2016-10-30T02:03:43.217Z,0
2016-10-30T02:04:43.222Z,0
2016-10-30T02:05:43.813Z,0
2016-10-30T02:06:43.323Z,0
2016-10-30T02:07:43.444Z,0
2016-10-30T02:08:43.956Z,0
2016-10-30T02:09:43.435Z,0
2016-10-30T02:10:43.497Z,0
2016-10-30T02:11:43.571Z,0
2016-10-30T02:12:43.650Z,0
2016-10-30T02:13:44.111Z,0
2016-10-30T02:14:44.290Z,0
2016-10-30T02:15:43.742Z,0
2016-10-30T02:16:43.797Z,0
2016-10-30T02:17:43.945Z,0
2016-10-30T02:18:43.892Z,0
2016-10-30T02:19:44.509Z,0
2016-10-30T02:20:43.972Z,0
2016-10-30T02:21:44.036Z,0
2016-10-30T02:22:44.156Z,0
2016-10-30T02:23:44.106Z,0
2016-10-30T02:24:44.197Z,0
2016-10-30T02:25:44.283Z,0
2016-10-30T02:26:44.266Z,0
2016-10-30T02:27:44.309Z,0
2016-10-30T02:28:44.494Z,0
2016-10-30T02:29:44.489Z,0
2016-10-30T02:30:44.545Z,0
2016-10-30T02:31:44.495Z,0
2016-10-30T02:32:45.109Z,0
2016-10-30T02:33:45.296Z,0
2016-10-30T02:34:45.720Z,0
2016-10-30T02:35:44.731Z,0
2016-10-30T02:36:44.779Z,0
2016-10-30T02:37:44.768Z,0
2016-10-30T02:38:44.984Z,0
2016-10-30T02:39:44.941Z,0
2016-10-30T02:40:44.951Z,0
2016-10-30T02:41:45.091Z,0
2016-10-30T02:42:45.042Z,0
2016-10-30T02:43:45.189Z,0
2016-10-30T02:44:45.173Z,0
2016-10-30T02:45:45.227Z,0
2016-10-30T02:46:45.276Z,0
2016-10-30T02:47:45.378Z,0
2016-10-30T02:48:45.439Z,0
2016-10-30T02:49:45.398Z,0
2016-10-30T02:50:45.457Z,0
2016-10-30T02:51:45.525Z,0
2016-10-30T02:52:45.543Z,0
2016-10-30T02:53:45.723Z,0
2016-10-30T02:54:45.638Z,0
2016-10-30T02:55:45.709Z,0
2016-10-30T02:56:45.830Z,0
2016-10-30T02:57:45.835Z,0
2016-10-30T02:58:45.828Z,0
2016-10-30T02:59:46.022Z,0
2016-10-30T03:00:45.959Z,0
2016-10-30T03:01:45.973Z,0
2016-10-30T03:02:46.076Z,0
2016-10-30T03:03:46.138Z,0
2016-10-30T03:04:46.252Z,0
2016-10-30T03:05:46.191Z,0
2016-10-30T03:06:46.244Z,0
2016-10-30T03:07:46.266Z,0
2016-10-30T03:08:46.378Z,0
2016-10-30T03:09:46.542Z,0
2016-10-30T03:10:46.979Z,0
2016-10-30T03:11:46.491Z,0
2016-10-30T03:12:46.548Z,0
2016-10-30T03:13:46.583Z,0
2016-10-30T03:14:46.773Z,0
2016-10-30T03:15:46.675Z,0
2016-10-30T03:16:46.703Z,0
2016-10-30T03:17:46.747Z,0
2016-10-30T03:18:46.807Z,0
2016-10-30T03:19:46.982Z,0
2016-10-30T03:20:46.967Z,0
2016-10-30T03:21:46.971Z,0
2016-10-30T03:22:47.582Z,0
2016-10-30T03:23:47.052Z,0
2016-10-30T03:24:47.786Z,0
2016-10-30T03:25:47.212Z,0
2016-10-30T03:26:47.225Z,0
2016-10-30T03:27:47.290Z,0
2016-10-30T03:28:47.330Z,0
2016-10-30T03:29:47.456Z,0
2016-10-30T03:30:47.400Z,0
2016-10-30T03:31:47.976Z,0
2016-10-30T03:32:47.530Z,0
2016-10-30T03:33:47.658Z,0
2016-10-30T03:34:47.753Z,0
2016-10-30T03:35:47.687Z,0
2016-10-30T03:36:47.797Z,0
2016-10-30T03:37:47.738Z,0
2016-10-30T03:38:47.872Z,0
2016-10-30T03:39:47.885Z,0
2016-10-30T03:40:48.021Z,0
2016-10-30T03:41:47.943Z,0
2016-10-30T03:42:48.035Z,0
2016-10-30T03:43:48.606Z,0
2016-10-30T03:44:48.156Z,0
2016-10-30T03:45:48.262Z,0
2016-10-30T03:46:48.244Z,0
2016-10-30T03:47:48.289Z,0
2016-10-30T03:48:48.840Z,0
2016-10-30T03:49:48.866Z,0
2016-10-30T03:50:48.500Z,0
2016-10-30T03:51:48.489Z,0
2016-10-30T03:52:48.502Z,0
2016-10-30T03:53:48.609Z,0
2016-10-30T03:54:48.648Z,0
2016-10-30T03:55:48.720Z,0
2016-10-30T03:56:48.711Z,0
2016-10-30T03:57:48.790Z,0
2016-10-30T03:58:48.829Z,0
2016-10-30T03:59:48.857Z,0
2016-10-30T04:00:49.549Z,0
2016-10-30T04:01:48.961Z,0
2016-10-30T04:02:49.013Z,0
2016-10-30T04:03:49.071Z,0
2016-10-30T04:04:49.079Z,0
2016-10-30T04:05:49.263Z,0
2016-10-30T04:06:49.201Z,0
2016-10-30T04:07:49.247Z,0
2016-10-30T04:08:49.344Z,0
2016-10-30T04:09:49.983Z,0
2016-10-30T04:10:49.426Z,0
2016-10-30T04:11:50.069Z,0
2016-10-30T04:12:49.504Z,0
2016-10-30T04:13:49.569Z,0
2016-10-30T04:14:49.582Z,0
2016-10-30T04:15:49.653Z,0
2016-10-30T04:16:49.808Z,0
2016-10-30T04:17:49.731Z,0
2016-10-30T04:18:49.815Z,0
2016-10-30T04:19:49.860Z,0
2016-10-30T04:20:49.882Z,0
2016-10-30T04:21:50.055Z,0
2016-10-30T04:22:49.977Z,0
2016-10-30T04:23:50.034Z,0
2016-10-30T04:24:50.130Z,0
2016-10-30T04:25:50.142Z,0
2016-10-30T04:26:50.802Z,0
2016-10-30T04:27:50.217Z,0
2016-10-30T04:28:50.302Z,0
2016-10-30T04:29:50.361Z,0
2016-10-30T04:30:50.389Z,0
2016-10-30T04:31:51.104Z,0
2016-10-30T04:32:50.539Z,0
2016-10-30T04:33:51.055Z,0
2016-10-30T04:34:50.589Z,0
2016-10-30T04:35:50.613Z,0
2016-10-30T04:36:50.813Z,0
2016-10-30T04:37:50.748Z,0
2016-10-30T04:38:50.860Z,0
2016-10-30T04:39:50.894Z,0
2016-10-30T04:40:50.899Z,0
2016-10-30T04:41:51.080Z,0
2016-10-30T04:42:50.968Z,0
2016-10-30T04:43:51.043Z,0
2016-10-30T04:44:51.074Z,0
2016-10-30T04:45:51.196Z,0
2016-10-30T04:46:51.830Z,0
2016-10-30T04:47:51.231Z,0
2016-10-30T04:48:51.298Z,0
2016-10-30T04:49:51.357Z,0
2016-10-30T04:50:51.366Z,0
2016-10-30T04:51:51.456Z,0
2016-10-30T04:52:51.590Z,0
2016-10-30T04:53:51.560Z,0
2016-10-30T04:54:51.560Z,0
2016-10-30T04:55:51.665Z,0
2016-10-30T04:56:51.695Z,0
2016-10-30T04:57:51.887Z,0
2016-10-30T04:58:51.759Z,0
2016-10-30T04:59:51.822Z,0
2016-10-30T05:00:51.889Z,0
2016-10-30T05:01:51.888Z,0
2016-10-30T05:02:52.610Z,0
2016-10-30T05:03:52.524Z,0
2016-10-30T05:04:52.092Z,0
2016-10-30T05:05:52.076Z,0
2016-10-30T05:06:52.691Z,0
2016-10-30T05:07:52.378Z,0
2016-10-30T05:08:52.263Z,0
2016-10-30T05:09:52.924Z,0
2016-10-30T05:10:52.336Z,0
2016-10-30T05:11:52.428Z,0
2016-10-30T05:12:52.530Z,0
2016-10-30T05:13:52.557Z,0
2016-10-30T05:14:52.546Z,0
2016-10-30T05:15:52.665Z,0
2016-10-30T05:16:52.716Z,0
2016-10-30T05:17:52.786Z,0
2016-10-30T05:18:52.755Z,0
2016-10-30T05:19:52.797Z,0
2016-10-30T05:20:52.867Z,0
2016-10-30T05:21:53.475Z,0
2016-10-30T05:22:52.936Z,0
2016-10-30T05:23:53.157Z,0
2016-10-30T05:24:53.073Z,0
2016-10-30T05:25:53.119Z,0
2016-10-30T05:26:53.151Z,0
2016-10-30T05:27:53.244Z,0
2016-10-30T05:28:53.358Z,0
2016-10-30T05:29:53.328Z,0
2016-10-30T05:30:53.386Z,0
2016-10-30T05:31:53.424Z,0
2016-10-30T05:32:53.421Z,0
2016-10-30T05:33:53.625Z,0
2016-10-30T05:34:53.562Z,0
2016-10-30T05:35:53.690Z,0
2016-10-30T05:36:53.697Z,0
2016-10-30T05:37:53.671Z,0
2016-10-30T05:38:53.869Z,0
2016-10-30T05:39:53.838Z,0
2016-10-30T05:40:53.881Z,0
2016-10-30T05:41:54.384Z,0
2016-10-30T05:42:53.992Z,0
2016-10-30T05:43:54.147Z,0
2016-10-30T05:44:54.042Z,0
2016-10-30T05:45:54.114Z,0
2016-10-30T05:46:54.177Z,0
2016-10-30T05:47:54.195Z,0
2016-10-30T05:48:54.355Z,0
2016-10-30T05:49:54.314Z,0
2016-10-30T05:50:54.340Z,0
2016-10-30T05:51:54.383Z,0
2016-10-30T05:52:54.461Z,0
2016-10-30T05:53:54.613Z,0
2016-10-30T05:54:54.601Z,0
2016-10-30T05:55:54.569Z,0
2016-10-30T05:56:54.705Z,0
2016-10-30T05:57:54.718Z,0
2016-10-30T05:58:55.362Z,0
2016-10-30T05:59:54.849Z,0
2016-10-30T06:00:54.847Z,0
2016-10-30T06:01:55.927Z,0
2016-10-30T06:02:54.966Z,0
2016-10-30T06:03:54.948Z,0
2016-10-30T06:04:55.088Z,0
2016-10-30T06:05:55.074Z,0
2016-10-30T06:06:55.093Z,0
2016-10-30T06:07:55.158Z,0
2016-10-30T06:08:55.777Z,0
2016-10-30T06:09:55.444Z,0
2016-10-30T06:10:55.846Z,0
2016-10-30T06:11:55.412Z,0
2016-10-30T06:12:55.941Z,0
2016-10-30T06:13:55.466Z,0
2016-10-30T06:14:55.612Z,0
2016-10-30T06:15:55.559Z,0
2016-10-30T06:16:55.640Z,0
2016-10-30T06:17:55.663Z,0
2016-10-30T06:18:55.744Z,0
2016-10-30T06:19:55.853Z,0
2016-10-30T06:20:55.797Z,0
2016-10-30T06:21:55.845Z,0
2016-10-30T06:22:55.969Z,0
2016-10-30T06:23:55.998Z,0
2016-10-30T06:24:56.104Z,0
2016-10-30T06:25:56.064Z,0
2016-10-30T06:26:56.115Z,0
2016-10-30T06:27:56.174Z,0
2016-10-30T06:28:56.243Z,0
2016-10-30T06:29:56.358Z,0
2016-10-30T06:30:56.338Z,0
2016-10-30T06:31:56.354Z,0
2016-10-30T06:32:56.447Z,0
2016-10-30T06:33:56.532Z,0
2016-10-30T06:34:56.525Z,0
2016-10-30T06:35:56.652Z,0
2016-10-30T06:36:56.598Z,0
2016-10-30T06:37:57.176Z,0
2016-10-30T06:38:57.229Z,0
2016-10-30T06:39:56.794Z,0
2016-10-30T06:40:56.957Z,0
2016-10-30T06:41:56.845Z,0
2016-10-30T06:42:56.875Z,0
2016-10-30T06:43:56.984Z,0
2016-10-30T06:44:57.031Z,0
2016-10-30T06:45:57.154Z,0
2016-10-30T06:46:57.115Z,0
2016-10-30T06:47:57.170Z,0
2016-10-30T06:48:57.212Z,0
2016-10-30T06:49:57.246Z,0
2016-10-30T06:50:57.368Z,0
2016-10-30T06:51:57.412Z,0
2016-10-30T06:52:57.364Z,0
2016-10-30T06:53:57.497Z,0
2016-10-30T06:54:58.019Z,0
2016-10-30T06:55:57.644Z,0
2016-10-30T06:56:57.613Z,0
2016-10-30T06:57:57.658Z,0
2016-10-30T06:58:57.708Z,0
2016-10-30T06:59:57.803Z,0
2016-10-30T07:00:57.934Z,0
2016-10-30T07:01:57.835Z,0
2016-10-30T07:02:57.899Z,0
2016-10-30T07:03:57.991Z,0
2016-10-30T07:04:58.027Z,0
2016-10-30T07:05:58.048Z,0
2016-10-30T07:06:58.255Z,0
2016-10-30T07:07:58.200Z,0
2016-10-30T07:08:58.168Z,0
2016-10-30T07:09:58.223Z,0
2016-10-30T07:10:58.292Z,0
2016-10-30T07:11:58.448Z,0
2016-10-30T07:12:58.378Z,0
2016-10-30T07:13:58.447Z,0
2016-10-30T07:14:58.499Z,0
2016-10-30T07:15:58.494Z,0
2016-10-30T07:16:58.703Z,0
2016-10-30T07:17:58.682Z,0
2016-10-30T07:18:58.731Z,0
2016-10-30T07:19:58.767Z,0
2016-10-30T07:20:58.786Z,0
2016-10-30T07:21:58.925Z,0
2016-10-30T07:22:58.912Z,0
2016-10-30T07:23:59.475Z,0
2016-10-30T07:24:59.022Z,0
2016-10-30T07:25:59.028Z,0
2016-10-30T07:26:59.228Z,0
2016-10-30T07:27:59.150Z,0
2016-10-30T07:28:59.208Z,0
2016-10-30T07:29:59.265Z,0
2016-10-30T07:30:59.297Z,0
2016-10-30T07:31:59.404Z,0
2016-10-30T07:32:59.364Z,0
2016-10-30T07:33:59.437Z,0
2016-10-30T07:34:59.470Z,0
2016-10-30T07:35:59.536Z,0
2016-10-30T07:37:00.180Z,0
2016-10-30T07:37:59.629Z,0
2016-10-30T07:38:59.675Z,0
2016-10-30T07:39:59.742Z,0
2016-10-30T07:41:00.245Z,0
2016-10-30T07:41:59.820Z,0
2016-10-30T07:42:59.973Z,0
2016-10-30T07:43:59.922Z,0
2016-10-30T07:44:59.958Z,0
2016-10-30T07:46:00.009Z,0
2016-10-30T07:47:00.071Z,0
2016-10-30T07:48:00.295Z,0
2016-10-30T07:49:00.166Z,0
2016-10-30T07:50:00.236Z,0
2016-10-30T07:51:00.246Z,0
2016-10-30T07:52:00.321Z,0
2016-10-30T07:53:00.486Z,0
2016-10-30T07:54:00.450Z,0
2016-10-30T07:55:00.434Z,0
2016-10-30T07:56:00.516Z,0
2016-10-30T07:57:00.581Z,0
2016-10-30T07:58:00.661Z,0
2016-10-30T07:59:00.765Z,0
2016-10-30T08:00:00.686Z,0
2016-10-30T08:01:00.770Z,0
2016-10-30T08:02:00.797Z,0
2016-10-30T08:03:00.950Z,0
2016-10-30T08:04:00.914Z,0
2016-10-30T08:05:00.991Z,0
2016-10-30T08:06:01.009Z,0
2016-10-30T08:07:01.084Z,0
2016-10-30T08:08:01.756Z,0
2016-10-30T08:09:01.145Z,0
2016-10-30T08:10:01.224Z,0
2016-10-30T08:11:01.287Z,0
2016-10-30T08:12:01.311Z,0
2016-10-30T08:13:01.475Z,0
2016-10-30T08:14:01.461Z,0
2016-10-30T08:15:01.467Z,0
2016-10-30T08:16:01.527Z,0
2016-10-30T08:17:01.640Z,0
2016-10-30T08:18:01.736Z,0
2016-10-30T08:19:01.662Z,0
2016-10-30T08:20:01.706Z,0
2016-10-30T08:21:01.728Z,0
2016-10-30T08:22:01.776Z,0
2016-10-30T08:23:01.824Z,0
2016-10-30T08:24:02.511Z,0
2016-10-30T08:25:01.940Z,0
2016-10-30T08:26:01.996Z,0
2016-10-30T08:27:01.996Z,0
2016-10-30T08:28:02.084Z,0
2016-10-30T08:29:02.261Z,0
2016-10-30T08:30:02.193Z,0
2016-10-30T08:31:02.243Z,0
2016-10-30T08:32:02.327Z,0
2016-10-30T08:33:02.400Z,0
2016-10-30T08:34:02.496Z,0
2016-10-30T08:35:02.432Z,0
2016-10-30T08:36:03.028Z,0
2016-10-30T08:37:02.555Z,0
2016-10-30T08:38:02.592Z,5
2016-10-30T08:39:02.699Z,5
2016-10-30T08:40:02.676Z,5
2016-10-30T08:41:03.266Z,5
2016-10-30T08:42:02.823Z,5
2016-10-30T08:43:02.864Z,5
2016-10-30T08:44:03.053Z,10
2016-10-30T08:45:03.486Z,10
2016-10-30T08:46:02.965Z,10
2016-10-30T08:47:03.035Z,15
2016-10-30T08:48:03.126Z,20
2016-10-30T08:49:03.255Z,25
2016-10-30T08:50:03.233Z,25
2016-10-30T08:51:03.321Z,35
2016-10-30T08:52:03.340Z,45
2016-10-30T08:53:03.366Z,45
2016-10-30T08:54:03.389Z,50
2016-10-30T08:55:03.519Z,50
2016-10-30T08:56:03.512Z,50
2016-10-30T08:57:04.059Z,90
2016-10-30T08:58:03.603Z,120
2016-10-30T08:59:03.631Z,100
2016-10-30T09:00:03.772Z,70
2016-10-30T09:01:03.771Z,75
2016-10-30T09:02:04.318Z,95
2016-10-30T09:03:03.838Z,505
2016-10-30T09:04:03.891Z,385
2016-10-30T09:05:04.004Z,200
2016-10-30T09:06:04.001Z,120
2016-10-30T09:07:04.037Z,180
2016-10-30T09:08:04.121Z,485
2016-10-30T09:09:04.108Z,820
2016-10-30T09:10:04.829Z,805
2016-10-30T09:11:04.255Z,495
2016-10-30T09:12:04.296Z,380
2016-10-30T09:13:04.302Z,335
2016-10-30T09:14:04.391Z,480
2016-10-30T09:15:04.550Z,475
2016-10-30T09:16:05.141Z,885
2016-10-30T09:17:04.522Z,870
2016-10-30T09:18:04.553Z,935
2016-10-30T09:19:05.159Z,795
2016-10-30T09:20:04.778Z,1015
2016-10-30T09:21:04.704Z,210
2016-10-30T09:22:04.762Z,1080
2016-10-30T09:23:04.819Z,1135
2016-10-30T09:24:04.905Z,1430
2016-10-30T09:25:04.918Z,1535
2016-10-30T09:26:05.132Z,985
2016-10-30T09:27:05.050Z,1465
2016-10-30T09:28:05.096Z,960
2016-10-30T09:29:05.169Z,270
2016-10-30T09:30:05.228Z,290
2016-10-30T09:31:05.375Z,165
2016-10-30T09:32:05.281Z,160
2016-10-30T09:33:05.386Z,95
2016-10-30T09:34:05.441Z,70
2016-10-30T09:35:05.493Z,65
2016-10-30T09:36:05.628Z,60
2016-10-30T09:37:05.577Z,65
2016-10-30T09:38:05.667Z,60
2016-10-30T09:39:05.741Z,60
2016-10-30T09:40:05.854Z,55
2016-10-30T09:41:05.909Z,50
2016-10-30T09:42:05.845Z,50
2016-10-30T09:43:05.884Z,45
2016-10-30T09:44:07.017Z,40
2016-10-30T09:45:06.048Z,35
2016-10-30T09:46:06.731Z,35
2016-10-30T09:47:06.648Z,30
2016-10-30T09:48:06.130Z,30
2016-10-30T09:49:06.195Z,30
2016-10-30T09:50:06.830Z,30
2016-10-30T09:51:06.410Z,30
2016-10-30T09:52:06.332Z,30
2016-10-30T09:53:06.419Z,30
2016-10-30T09:54:06.530Z,35
2016-10-30T09:55:06.580Z,35
2016-10-30T09:56:06.593Z,35
2016-10-30T09:57:07.256Z,35
2016-10-30T09:58:07.172Z,35
2016-10-30T09:59:07.250Z,35
2016-10-30T10:00:06.751Z,35
2016-10-30T10:01:06.807Z,40
2016-10-30T10:02:07.484Z,40
2016-10-30T10:03:06.928Z,40
2016-10-30T10:04:06.973Z,45
2016-10-30T10:05:06.989Z,45
2016-10-30T10:06:07.053Z,50
2016-10-30T10:07:07.211Z,50
2016-10-30T10:08:07.120Z,50
2016-10-30T10:09:07.781Z,50
2016-10-30T10:10:07.257Z,60
2016-10-30T10:11:07.303Z,65
2016-10-30T10:12:07.449Z,60
2016-10-30T10:13:07.389Z,60
2016-10-30T10:14:07.474Z,60
2016-10-30T10:15:08.276Z,60
2016-10-30T10:16:07.566Z,60
2016-10-30T10:17:08.216Z,70
2016-10-30T10:18:07.688Z,70
2016-10-30T10:19:07.712Z,70
2016-10-30T10:20:07.746Z,70
2016-10-30T10:21:07.884Z,60
2016-10-30T10:22:07.991Z,70
2016-10-30T10:23:07.958Z,75
2016-10-30T10:24:07.951Z,80
2016-10-30T10:25:07.988Z,80
2016-10-30T10:26:08.045Z,70
2016-10-30T10:27:08.132Z,70
2016-10-30T10:28:08.269Z,55
2016-10-30T10:29:08.186Z,55
2016-10-30T10:30:08.759Z,55
2016-10-30T10:31:08.875Z,50
2016-10-30T10:32:08.343Z,50
2016-10-30T10:33:08.521Z,45
2016-10-30T10:34:08.451Z,45
2016-10-30T10:35:09.073Z,45
2016-10-30T10:36:09.097Z,50
2016-10-30T10:37:09.141Z,45
2016-10-30T10:38:08.766Z,45
2016-10-30T10:39:08.694Z,45
2016-10-30T10:40:08.812Z,50
2016-10-30T10:41:08.844Z,50
2016-10-30T10:42:09.405Z,50
2016-10-30T10:43:09.045Z,50
2016-10-30T10:44:08.975Z,50
2016-10-30T10:45:09.028Z,50
2016-10-30T10:46:09.079Z,50
2016-10-30T10:47:09.156Z,50
2016-10-30T10:48:09.270Z,55
2016-10-30T10:49:09.261Z,55
2016-10-30T10:50:09.239Z,55
2016-10-30T10:51:09.329Z,55
2016-10-30T10:52:09.437Z,60
2016-10-30T10:53:09.510Z,65
2016-10-30T10:54:09.440Z,65
2016-10-30T10:55:09.532Z,65
2016-10-30T10:56:09.548Z,70
2016-10-30T10:57:09.603Z,75
2016-10-30T10:58:10.381Z,75
2016-10-30T10:59:09.786Z,80
2016-10-30T11:00:09.765Z,85
2016-10-30T11:01:09.832Z,90
2016-10-30T11:02:10.466Z,95
2016-10-30T11:03:09.946Z,95
2016-10-30T11:04:10.088Z,85
2016-10-30T11:05:10.049Z,85
2016-10-30T11:06:10.115Z,80
2016-10-30T11:07:10.167Z,75
2016-10-30T11:08:10.239Z,75
2016-10-30T11:09:10.288Z,75
2016-10-30T11:10:10.275Z,75
2016-10-30T11:11:10.327Z,70
2016-10-30T11:12:10.906Z,70
2016-10-30T11:13:10.965Z,70
2016-10-30T11:14:10.540Z,75
2016-10-30T11:15:10.501Z,75
2016-10-30T11:16:10.567Z,75
2016-10-30T11:17:10.622Z,70
2016-10-30T11:18:10.697Z,65
2016-10-30T11:19:10.793Z,65
2016-10-30T11:20:10.733Z,65
2016-10-30T11:21:10.822Z,65
2016-10-30T11:22:10.874Z,65
2016-10-30T11:23:11.454Z,65
2016-10-30T11:24:11.056Z,70
2016-10-30T11:25:11.037Z,65
2016-10-30T11:26:11.086Z,65
2016-10-30T11:27:11.128Z,70
2016-10-30T11:28:11.186Z,70
2016-10-30T11:29:11.868Z,75
2016-10-30T11:30:11.786Z,75
2016-10-30T11:31:11.303Z,80
2016-10-30T11:32:11.333Z,80
2016-10-30T11:33:11.491Z,85
2016-10-30T11:34:11.604Z,90
2016-10-30T11:35:11.538Z,95
2016-10-30T11:36:11.582Z,100
2016-10-30T11:37:11.608Z,115
2016-10-30T11:38:11.767Z,125
2016-10-30T11:39:11.799Z,125
2016-10-30T11:40:11.879Z,130
2016-10-30T11:41:12.422Z,160
2016-10-30T11:42:11.810Z,130
2016-10-30T11:43:11.919Z,130
2016-10-30T11:44:11.984Z,150
2016-10-30T11:45:12.151Z,155
2016-10-30T11:46:12.099Z,150
2016-10-30T11:47:12.655Z,155
2016-10-30T11:48:12.199Z,200
2016-10-30T11:49:12.211Z,175
2016-10-30T11:50:12.403Z,190
2016-10-30T11:51:12.357Z,180
2016-10-30T11:52:12.356Z,175
2016-10-30T11:53:13.006Z,180
2016-10-30T11:54:12.498Z,175
2016-10-30T11:55:13.165Z,195
2016-10-30T11:56:12.555Z,220
2016-10-30T11:57:12.639Z,195
2016-10-30T11:58:12.644Z,240
2016-10-30T11:59:12.681Z,245
2016-10-30T12:00:12.884Z,230
2016-10-30T12:01:12.805Z,185
2016-10-30T12:02:13.396Z,200
2016-10-30T12:03:12.926Z,195
2016-10-30T12:04:13.509Z,195
2016-10-30T12:05:13.150Z,200
2016-10-30T12:06:13.086Z,225
2016-10-30T12:07:13.099Z,200
2016-10-30T12:08:13.706Z,200
2016-10-30T12:09:13.218Z,210
2016-10-30T12:10:13.930Z,205
2016-10-30T12:11:13.300Z,240
2016-10-30T12:12:13.893Z,235
2016-10-30T12:13:13.440Z,225
2016-10-30T12:14:13.494Z,215
2016-10-30T12:15:14.162Z,210
2016-10-30T12:16:13.584Z,210
2016-10-30T12:17:13.662Z,205
2016-10-30T12:18:13.697Z,195
2016-10-30T12:19:13.725Z,185
2016-10-30T12:20:14.346Z,185
2016-10-30T12:21:14.531Z,185
2016-10-30T12:22:13.874Z,185
2016-10-30T12:23:13.949Z,195
2016-10-30T12:24:13.971Z,200
2016-10-30T12:25:14.049Z,195
2016-10-30T12:26:15.275Z,185
2016-10-30T12:27:14.130Z,195
2016-10-30T12:28:14.222Z,190
2016-10-30T12:29:14.269Z,190
2016-10-30T12:30:14.341Z,205
2016-10-30T12:31:14.435Z,210
2016-10-30T12:32:14.392Z,205
2016-10-30T12:33:14.442Z,195
2016-10-30T12:34:14.498Z,190
2016-10-30T12:35:14.536Z,200
2016-10-30T12:36:14.700Z,210
2016-10-30T12:37:14.684Z,205
2016-10-30T12:38:15.227Z,205
2016-10-30T12:39:14.811Z,205
2016-10-30T12:40:14.806Z,215
2016-10-30T12:41:14.974Z,220
2016-10-30T12:42:14.939Z,215
2016-10-30T12:43:14.930Z,220
2016-10-30T12:44:15.042Z,230
2016-10-30T12:45:15.078Z,225
2016-10-30T12:46:15.239Z,230
2016-10-30T12:47:15.184Z,225
2016-10-30T12:48:15.243Z,185
2016-10-30T12:49:15.258Z,215
2016-10-30T12:50:15.339Z,180
2016-10-30T12:51:15.426Z,205
2016-10-30T12:52:15.512Z,180
2016-10-30T12:53:15.499Z,180
2016-10-30T12:54:15.553Z,220
2016-10-30T12:55:15.572Z,210
2016-10-30T12:56:15.646Z,215
2016-10-30T12:57:15.792Z,225
2016-10-30T12:58:16.954Z,215
2016-10-30T12:59:15.851Z,215
2016-10-30T13:00:15.886Z,215
2016-10-30T13:01:15.903Z,215
2016-10-30T13:02:16.043Z,215
2016-10-30T13:03:16.014Z,210
2016-10-30T13:04:16.627Z,210
2016-10-30T13:05:16.567Z,205
2016-10-30T13:06:16.172Z,200
2016-10-30T13:07:16.873Z,205
2016-10-30T13:08:16.296Z,205
2016-10-30T13:09:16.330Z,205
2016-10-30T13:10:16.356Z,210
2016-10-30T13:11:16.425Z,205
2016-10-30T13:12:16.567Z,205
2016-10-30T13:13:17.046Z,175
2016-10-30T13:14:16.572Z,210
2016-10-30T13:15:16.654Z,210
2016-10-30T13:16:16.680Z,210
2016-10-30T13:17:16.839Z,205
2016-10-30T13:18:16.830Z,175
2016-10-30T13:19:17.358Z,195
2016-10-30T13:20:16.888Z,200
2016-10-30T13:21:16.924Z,200
2016-10-30T13:22:17.073Z,205
2016-10-30T13:23:17.024Z,205
2016-10-30T13:24:17.060Z,210
2016-10-30T13:25:17.169Z,210
2016-10-30T13:26:17.197Z,205
2016-10-30T13:27:17.225Z,190
2016-10-30T13:28:17.938Z,155
2016-10-30T13:29:17.337Z,155
2016-10-30T13:30:17.369Z,180
2016-10-30T13:31:17.475Z,160
2016-10-30T13:32:17.549Z,170
2016-10-30T13:33:18.174Z,190
2016-10-30T13:34:18.116Z,190
2016-10-30T13:35:17.634Z,160
2016-10-30T13:36:18.248Z,155
2016-10-30T13:37:17.752Z,170
2016-10-30T13:38:17.915Z,155
2016-10-30T13:39:17.900Z,160
2016-10-30T13:40:17.943Z,165
2016-10-30T13:41:17.992Z,165
2016-10-30T13:42:18.025Z,195
2016-10-30T13:43:18.212Z,200
2016-10-30T13:44:18.178Z,205
2016-10-30T13:45:18.205Z,200
2016-10-30T13:46:18.252Z,170
2016-10-30T13:47:18.288Z,185
2016-10-30T13:48:18.468Z,200
2016-10-30T13:49:18.915Z,195
2016-10-30T13:50:18.432Z,190
2016-10-30T13:51:18.513Z,185
2016-10-30T13:52:18.527Z,150
2016-10-30T13:53:18.758Z,150
2016-10-30T13:54:18.672Z,155
2016-10-30T13:55:18.719Z,180
2016-10-30T13:56:19.342Z,170
2016-10-30T13:57:18.841Z,175
2016-10-30T13:58:18.992Z,160
2016-10-30T13:59:18.904Z,175
2016-10-30T14:00:18.939Z,145
2016-10-30T14:01:19.001Z,175
2016-10-30T14:02:19.050Z,180
2016-10-30T14:03:19.185Z,175
2016-10-30T14:04:19.280Z,180
2016-10-30T14:05:19.263Z,180
2016-10-30T14:06:19.311Z,180
2016-10-30T14:07:19.318Z,180
2016-10-30T14:08:19.384Z,175
2016-10-30T14:09:19.560Z,170
2016-10-30T14:10:20.062Z,175
2016-10-30T14:11:19.552Z,150
2016-10-30T14:12:19.630Z,155
2016-10-30T14:13:19.668Z,165
2016-10-30T14:14:20.352Z,135
2016-10-30T14:15:19.754Z,165
2016-10-30T14:16:19.771Z,160
2016-10-30T14:17:19.869Z,130
2016-10-30T14:18:19.955Z,120
2016-10-30T14:19:20.124Z,120
2016-10-30T14:20:20.015Z,125
2016-10-30T14:21:20.624Z,155
2016-10-30T14:22:20.685Z,170
2016-10-30T14:23:20.672Z,170
2016-10-30T14:24:20.886Z,170
2016-10-30T14:25:20.820Z,160
2016-10-30T14:26:20.328Z,145
2016-10-30T14:27:20.396Z,145